Terminal Aerodrome Forecast
Issued by NWS

Home | Current Version | Previous Version | Text Only | Print | Product List | Glossary On
Versions: 1 2 3 4 5 6 7 8 9 10 11 12 13 14 15 16 17
000
FTAK31 PAJN 031400 AAA
TAFAJN
TAF AMD
PAJN 031435Z 0315/0412 VRB03KT P6SM BCFG SCT003 SCT020
     FM031600 10006KT P6SM SCT150
     FM031900 25007KT P6SM SCT080 SCT150
     FM040200 VRB06KT P6SM SKC=

USA.gov is the U.S. government's official web portal to all federal, state and local government web resources and services.